Private Wetterstation Wechselburg
Wetterdaten: Freitag, 19.10.2012
Datum Zeit Temp. +2m Bodentemp. Temp.+5cm Temp. Wind Windchill X Diff Temp. Feuchte +2m Feuchte +5cm Sonnenschein Luftdruck Regen Wind Richtung Richtung Sonnenschein UV Taupunkt Windchill Windben
19.10.2012 00:00 8,3 C 16,6 C 8,8 C 8,5 C 8,5 C 0,2 C 87 % 88 % 0 % 1017,3 hPa 0,0 l/m 0,0 km/h (0 Bft) NW 315 0 min 0,0 UV-I 6,3 C 8,5 C 0,0 km/h (0 Bft)
19.10.2012 00:05 8,2 C 16,7 C 8,9 C 8,5 C 8,5 C 0,3 C 86 % 89 % 0 % 1017,4 hPa 0,0 l/m 0,0 km/h (0 Bft) N-NO 22 0 min 0,0 UV-I 6,0 C 8,5 C 0,0 km/h (0 Bft)
19.10.2012 00:10 8,1 C 16,7 C 8,8 C 8,2 C 8,2 C 0,1 C 86 % 89 % 0 % 1017,4 hPa 0,0 l/m 0,0 km/h (0 Bft) O-SO 112 0 min 0,0 UV-I 5,9 C 8,2 C 0,0 km/h (0 Bft)
19.10.2012 00:15 8,0 C 16,7 C 8,9 C 8,1 C 8,1 C 0,1 C 86 % 89 % 0 % 1017,4 hPa 0,0 l/m 0,0 km/h (0 Bft) O-NO 67 0 min 0,0 UV-I 5,8 C 8,1 C 0,0 km/h (0 Bft)
19.10.2012 00:20 7,9 C 16,6 C 8,7 C 7,9 C 7,9 C 0,0 C 86 % 89 % 0 % 1017,4 hPa 0,0 l/m 0,0 km/h (0 Bft) W 270 0 min 0,0 UV-I 5,7 C 7,9 C 0,0 km/h (0 Bft)
19.10.2012 00:25 7,8 C 16,6 C 8,7 C 7,8 C 7,8 C 0,0 C 86 % 89 % 0 % 1017,6 hPa 0,0 l/m 0,0 km/h (0 Bft) NO 45 0 min 0,0 UV-I 5,6 C 7,8 C 0,0 km/h (0 Bft)
19.10.2012 00:30 7,7 C 16,7 C 8,3 C 7,7 C 7,6 C 0,0 C 86 % 89 % 0 % 1017,6 hPa 0,0 l/m 0,0 km/h (0 Bft) O 90 0 min 0,0 UV-I 5,5 C 7,6 C 0,0 km/h (0 Bft)
19.10.2012 00:35 7,6 C 16,6 C 8,3 C 7,6 C 7,6 C 0,0 C 87 % 89 % 0 % 1017,6 hPa 0,0 l/m 0,0 km/h (0 Bft) O-SO 112 0 min 0,0 UV-I 5,6 C 7,6 C 0,0 km/h (0 Bft)
19.10.2012 00:41 7,5 C 16,6 C 8,0 C 7,5 C 7,5 C 0,0 C 87 % 89 % 0 % 1018,0 hPa 0,0 l/m 0,0 km/h (0 Bft) N 0 0 min 0,0 UV-I 5,5 C 7,5 C 0,0 km/h (0 Bft)
19.10.2012 00:55 7,2 C 16,6 C 8,0 C 7,2 C 7,2 C 0,0 C 87 % 89 % 0 % 1018,0 hPa 0,0 l/m 0,0 km/h (0 Bft) W 270 0 min 0,0 UV-I 5,2 C 7,2 C 0,0 km/h (0 Bft)
19.10.2012 01:00 7,0 C 16,5 C 7,9 C 7,1 C 7,1 C 0,1 C 87 % 89 % 0 % 1018,0 hPa 0,0 l/m 0,0 km/h (0 Bft) NW 315 0 min 0,0 UV-I 5,0 C 7,1 C 0,0 km/h (0 Bft)
19.10.2012 01:05 6,8 C 16,5 C 7,9 C 6,9 C 6,9 C 0,1 C 87 % 89 % 0 % 1017,6 hPa 0,0 l/m 0,0 km/h (0 Bft) W-SW 247 0 min 0,0 UV-I 4,8 C 6,9 C 0,0 km/h (0 Bft)
19.10.2012 01:10 6,7 C 16,6 C 7,9 C 6,9 C 6,9 C 0,2 C 87 % 90 % 0 % 1017,6 hPa 0,0 l/m 0,0 km/h (0 Bft) S-SW 202 0 min 0,0 UV-I 4,7 C 6,9 C 0,0 km/h (0 Bft)
19.10.2012 01:15 6,7 C 16,6 C 7,7 C 7,0 C 7,0 C 0,3 C 87 % 89 % 0 % 1017,6 hPa 0,0 l/m 0,0 km/h (0 Bft) N-NO 22 0 min 0,0 UV-I 4,7 C 7,0 C 0,0 km/h (0 Bft)
19.10.2012 01:20 6,7 C 16,6 C 7,7 C 7,0 C 7,0 C 0,3 C 88 % 90 % 0 % 1017,6 hPa 0,0 l/m 0,0 km/h (0 Bft) SO 135 0 min 0,0 UV-I 4,9 C 7,0 C 0,0 km/h (0 Bft)
19.10.2012 01:25 6,6 C 16,6 C 7,6 C 6,9 C 6,9 C 0,3 C 88 % 90 % 0 % 1017,7 hPa 0,0 l/m 0,0 km/h (0 Bft) O-SO 112 0 min 0,0 UV-I 4,8 C 6,9 C 0,0 km/h (0 Bft)
19.10.2012 01:30 6,5 C 16,5 C 7,4 C 6,7 C 6,7 C 0,2 C 88 % 90 % 0 % 1017,7 hPa 0,0 l/m 0,0 km/h (0 Bft) W 270 0 min 0,0 UV-I 4,7 C 6,7 C 0,0 km/h (0 Bft)
19.10.2012 01:35 6,5 C 16,5 C 7,4 C 6,6 C 6,6 C 0,1 C 88 % 90 % 0 % 1017,7 hPa 0,0 l/m 0,0 km/h (0 Bft) W-SW 247 0 min 0,0 UV-I 4,7 C 6,6 C 0,0 km/h (0 Bft)
19.10.2012 01:40 6,3 C 16,5 C 7,4 C 6,5 C 6,5 C 0,2 C 87 % 90 % 0 % 1017,7 hPa 0,0 l/m 0,0 km/h (0 Bft) W-SW 247 0 min 0,0 UV-I 4,3 C 6,5 C 0,0 km/h (0 Bft)
19.10.2012 01:45 6,3 C 16,5 C 7,5 C 6,4 C 6,4 C 0,1 C 87 % 90 % 0 % 1018,2 hPa 0,0 l/m 0,0 km/h (0 Bft) NW 315 0 min 0,0 UV-I 4,3 C 6,4 C 0,0 km/h (0 Bft)
19.10.2012 01:50 6,0 C 16,5 C 7,2 C 6,1 C 6,1 C 0,1 C 87 % 90 % 0 % 1018,2 hPa 0,0 l/m 0,0 km/h (0 Bft) NW 315 0 min 0,0 UV-I 4,0 C 6,1 C 0,0 km/h (0 Bft)
19.10.2012 01:55 6,0 C 16,5 C 7,1 C 6,1 C 6,1 C 0,1 C 88 % 90 % 0 % 1018,2 hPa 0,0 l/m 0,0 km/h (0 Bft) NW 315 0 min 0,0 UV-I 4,2 C 6,1 C 0,0 km/h (0 Bft)
19.10.2012 02:00 6,0 C 16,5 C 7,1 C 6,0 C 6,0 C 0,0 C 88 % 90 % 0 % 1018,2 hPa 0,0 l/m 0,0 km/h (0 Bft) W 270 0 min 0,0 UV-I 4,2 C 6,0 C 0,0 km/h (0 Bft)
19.10.2012 02:05 6,0 C 16,5 C 7,1 C 6,1 C 6,1 C 0,1 C 88 % 90 % 0 % 1017,8 hPa 0,0 l/m 0,0 km/h (0 Bft) O-SO 112 0 min 0,0 UV-I 4,2 C 6,1 C 0,0 km/h (0 Bft)
19.10.2012 02:10 6,0 C 16,5 C 7,1 C 6,1 C 6,1 C 0,1 C 88 % 90 % 0 % 1017,8 hPa 0,0 l/m 0,0 km/h (0 Bft) O 90 0 min 0,0 UV-I 4,2 C 6,1 C 0,0 km/h (0 Bft)
19.10.2012 02:15 6,0 C 16,5 C 6,9 C 6,1 C 6,1 C 0,1 C 88 % 90 % 0 % 1017,8 hPa 0,0 l/m 0,0 km/h (0 Bft) O 90 0 min 0,0 UV-I 4,2 C 6,1 C 0,0 km/h (0 Bft)
19.10.2012 02:20 5,9 C 16,5 C 6,8 C 6,1 C 6,1 C 0,2 C 88 % 90 % 0 % 1017,8 hPa 0,0 l/m 0,0 km/h (0 Bft) O-SO 112 0 min 0,0 UV-I 4,1 C 6,1 C 0,0 km/h (0 Bft)
19.10.2012 02:25 5,9 C 16,5 C 6,8 C 6,1 C 6,1 C 0,2 C 88 % 90 % 0 % 1017,7 hPa 0,0 l/m 0,0 km/h (0 Bft) O 90 0 min 0,0 UV-I 4,1 C 6,1 C 0,0 km/h (0 Bft)
19.10.2012 02:30 5,8 C 16,4 C 6,8 C 6,0 C 6,0 C 0,2 C 88 % 90 % 0 % 1017,7 hPa 0,0 l/m 0,0 km/h (0 Bft) O 90 0 min 0,0 UV-I 4,0 C 6,0 C 0,0 km/h (0 Bft)
19.10.2012 02:35 5,7 C 16,4 C 6,8 C 5,9 C 5,9 C 0,2 C 88 % 90 % 0 % 1017,7 hPa 0,0 l/m 0,0 km/h (0 Bft) SW 225 0 min 0,0 UV-I 3,9 C 5,9 C 0,0 km/h (0 Bft)
19.10.2012 02:40 5,6 C 16,4 C 6,9 C 5,9 C 5,9 C 0,3 C 89 % 90 % 0 % 1017,7 hPa 0,0 l/m 0,0 km/h (0 Bft) S-SO 157 0 min 0,0 UV-I 3,9 C 5,9 C 0,0 km/h (0 Bft)
19.10.2012 02:45 5,5 C 16,4 C 6,7 C 5,9 C 5,9 C 0,4 C 89 % 90 % 0 % 1017,2 hPa 0,0 l/m 0,0 km/h (0 Bft) S 180 0 min 0,0 UV-I 3,8 C 5,9 C 0,0 km/h (0 Bft)
19.10.2012 02:50 5,6 C 16,4 C 6,7 C 6,0 C 6,0 C 0,4 C 89 % 90 % 0 % 1017,2 hPa 0,0 l/m 0,0 km/h (0 Bft) O 90 0 min 0,0 UV-I 3,9 C 6,0 C 0,0 km/h (0 Bft)
19.10.2012 02:55 5,6 C 16,5 C 6,7 C 6,1 C 6,1 C 0,5 C 89 % 90 % 0 % 1017,2 hPa 0,0 l/m 0,0 km/h (0 Bft) NW 315 0 min 0,0 UV-I 3,9 C 6,1 C 0,0 km/h (0 Bft)
19.10.2012 03:00 5,6 C 16,5 C 6,6 C 6,0 C 6,0 C 0,4 C 89 % 90 % 0 % 1017,2 hPa 0,0 l/m 0,0 km/h (0 Bft) SW 225 0 min 0,0 UV-I 3,9 C 6,0 C 0,0 km/h (0 Bft)
19.10.2012 03:05 5,6 C 16,5 C 6,6 C 6,0 C 6,0 C 0,4 C 89 % 90 % 0 % 1017,9 hPa 0,0 l/m 0,0 km/h (0 Bft) SO 135 0 min 0,0 UV-I 3,9 C 6,0 C 0,0 km/h (0 Bft)
19.10.2012 03:10 5,6 C 16,5 C 6,5 C 6,0 C 6,0 C 0,4 C 89 % 90 % 0 % 1017,9 hPa 0,0 l/m 0,0 km/h (0 Bft) O 90 0 min 0,0 UV-I 3,9 C 6,0 C 0,0 km/h (0 Bft)
19.10.2012 03:15 5,6 C 16,5 C 6,5 C 6,1 C 6,1 C 0,5 C 89 % 91 % 0 % 1017,9 hPa 0,0 l/m 0,0 km/h (0 Bft) O-NO 67 0 min 0,0 UV-I 3,9 C 6,1 C 0,0 km/h (0 Bft)
19.10.2012 03:20 5,6 C 16,5 C 6,6 C 6,1 C 6,1 C 0,5 C 89 % 91 % 0 % 1017,9 hPa 0,0 l/m 0,0 km/h (0 Bft) W 270 0 min 0,0 UV-I 3,9 C 6,1 C 0,0 km/h (0 Bft)
19.10.2012 03:25 5,5 C 16,4 C 6,6 C 6,0 C 6,0 C 0,5 C 89 % 91 % 0 % 1017,4 hPa 0,0 l/m 0,0 km/h (0 Bft) SW 225 0 min 0,0 UV-I 3,8 C 6,0 C 0,0 km/h (0 Bft)
19.10.2012 03:30 5,5 C 16,4 C 6,4 C 6,0 C 6,0 C 0,5 C 89 % 91 % 0 % 1017,4 hPa 0,0 l/m 0,0 km/h (0 Bft) O 90 0 min 0,0 UV-I 3,8 C 6,0 C 0,0 km/h (0 Bft)
19.10.2012 03:35 5,5 C 16,4 C 6,4 C 6,1 C 6,1 C 0,6 C 89 % 91 % 0 % 1017,4 hPa 0,0 l/m 0,0 km/h (0 Bft) SW 225 0 min 0,0 UV-I 3,8 C 6,1 C 0,0 km/h (0 Bft)
19.10.2012 03:40 5,5 C 16,4 C 6,5 C 6,0 C 6,0 C 0,5 C 89 % 91 % 0 % 1017,4 hPa 0,0 l/m 0,0 km/h (0 Bft) N-NW 337 0 min 0,0 UV-I 3,8 C 6,0 C 0,0 km/h (0 Bft)
19.10.2012 03:45 5,4 C 16,4 C 6,7 C 6,0 C 6,0 C 0,6 C 89 % 91 % 0 % 1017,1 hPa 0,0 l/m 0,0 km/h (0 Bft) W 270 0 min 0,0 UV-I 3,7 C 6,0 C 0,0 km/h (0 Bft)
19.10.2012 03:50 5,5 C 16,4 C 6,6 C 5,9 C 5,9 C 0,4 C 89 % 91 % 0 % 1017,1 hPa 0,0 l/m 0,0 km/h (0 Bft) O-NO 67 0 min 0,0 UV-I 3,8 C 5,9 C 0,0 km/h (0 Bft)
19.10.2012 03:55 5,4 C 16,4 C 6,4 C 5,9 C 5,9 C 0,5 C 89 % 91 % 0 % 1017,1 hPa 0,0 l/m 0,0 km/h (0 Bft) O-NO 67 0 min 0,0 UV-I 3,7 C 5,9 C 0,0 km/h (0 Bft)
19.10.2012 04:00 5,4 C 16,4 C 6,4 C 5,9 C 5,9 C 0,5 C 89 % 91 % 0 % 1017,1 hPa 0,0 l/m 0,0 km/h (0 Bft) N-NO 22 0 min 0,0 UV-I 3,7 C 5,9 C 0,0 km/h (0 Bft)
19.10.2012 04:05 5,3 C 16,3 C 6,5 C 5,9 C 5,9 C 0,6 C 89 % 91 % 0 % 1017,3 hPa 0,0 l/m 0,0 km/h (0 Bft) W-SW 247 0 min 0,0 UV-I 3,6 C 5,9 C 0,0 km/h (0 Bft)
19.10.2012 04:10 5,2 C 16,3 C 6,5 C 5,6 C 5,6 C 0,4 C 89 % 91 % 0 % 1017,3 hPa 0,0 l/m 0,0 km/h (0 Bft) W-SW 247 0 min 0,0 UV-I 3,5 C 5,6 C 0,0 km/h (0 Bft)
19.10.2012 04:15 5,1 C 16,3 C 6,3 C 5,4 C 5,4 C 0,3 C 89 % 91 % 0 % 1017,3 hPa 0,0 l/m 0,0 km/h (0 Bft) W-SW 247 0 min 0,0 UV-I 3,4 C 5,4 C 0,0 km/h (0 Bft)
19.10.2012 04:20 4,9 C 16,3 C 6,2 C 5,2 C 5,2 C 0,3 C 89 % 91 % 0 % 1017,3 hPa 0,0 l/m 0,0 km/h (0 Bft) W-SW 247 0 min 0,0 UV-I 3,2 C 5,2 C 0,0 km/h (0 Bft)
19.10.2012 04:25 4,9 C 16,3 C 6,3 C 5,2 C 5,2 C 0,3 C 89 % 91 % 0 % 1017,1 hPa 0,0 l/m 0,0 km/h (0 Bft) O-NO 67 0 min 0,0 UV-I 3,2 C 5,2 C 0,0 km/h (0 Bft)
19.10.2012 04:30 5,0 C 16,3 C 6,2 C 5,5 C 5,5 C 0,5 C 90 % 91 % 0 % 1017,1 hPa 0,0 l/m 0,0 km/h (0 Bft) O 90 0 min 0,0 UV-I 3,5 C 5,5 C 0,0 km/h (0 Bft)
19.10.2012 04:35 5,2 C 16,3 C 6,3 C 5,8 C 5,8 C 0,6 C 90 % 91 % 0 % 1017,1 hPa 0,0 l/m 0,0 km/h (0 Bft) O-NO 67 0 min 0,0 UV-I 3,7 C 5,8 C 0,0 km/h (0 Bft)
19.10.2012 04:40 5,2 C 16,3 C 6,1 C 5,9 C 5,9 C 0,7 C 90 % 91 % 0 % 1017,1 hPa 0,0 l/m 0,0 km/h (0 Bft) W-SW 247 0 min 0,0 UV-I 3,7 C 5,9 C 0,0 km/h (0 Bft)
19.10.2012 04:45 5,2 C 16,3 C 6,2 C 5,9 C 5,9 C 0,7 C 90 % 91 % 0 % 1017,0 hPa 0,0 l/m 0,0 km/h (0 Bft) W-SW 247 0 min 0,0 UV-I 3,7 C 5,9 C 0,0 km/h (0 Bft)
19.10.2012 04:50 5,0 C 16,2 C 6,2 C 5,6 C 5,6 C 0,6 C 90 % 91 % 0 % 1017,0 hPa 0,0 l/m 0,0 km/h (0 Bft) SW 225 0 min 0,0 UV-I 3,5 C 5,6 C 0,0 km/h (0 Bft)
19.10.2012 04:55 4,9 C 16,2 C 6,1 C 5,4 C 5,4 C 0,5 C 90 % 91 % 0 % 1017,0 hPa 0,0 l/m 0,0 km/h (0 Bft) S-SO 157 0 min 0,0 UV-I 3,4 C 5,4 C 0,0 km/h (0 Bft)
19.10.2012 05:00 4,9 C 16,2 C 6,0 C 5,5 C 5,5 C 0,6 C 90 % 91 % 0 % 1017,1 hPa 0,0 l/m 0,0 km/h (0 Bft) O 90 0 min 0,0 UV-I 3,4 C 5,5 C 0,0 km/h (0 Bft)
19.10.2012 05:05 5,0 C 16,2 C 6,0 C 5,7 C 5,7 C 0,7 C 90 % 91 % 0 % 1017,1 hPa 0,0 l/m 0,0 km/h (0 Bft) O-NO 67 0 min 0,0 UV-I 3,5 C 5,7 C 0,0 km/h (0 Bft)
19.10.2012 05:10 5,1 C 16,2 C 6,0 C 5,9 C 5,9 C 0,8 C 90 % 91 % 0 % 1017,1 hPa 0,0 l/m 0,0 km/h (0 Bft) O-NO 67 0 min 0,0 UV-I 3,6 C 5,9 C 0,0 km/h (0 Bft)
19.10.2012 05:15 5,1 C 16,2 C 6,0 C 5,9 C 5,9 C 0,8 C 90 % 91 % 0 % 1017,1 hPa 0,0 l/m 0,0 km/h (0 Bft) O-NO 67 0 min 0,0 UV-I 3,6 C 5,9 C 0,0 km/h (0 Bft)
19.10.2012 05:20 5,2 C 16,2 C 6,0 C 6,0 C 6,0 C 0,8 C 90 % 91 % 0 % 1017,1 hPa 0,0 l/m 0,0 km/h (0 Bft) O 90 0 min 0,0 UV-I 3,7 C 6,0 C 0,0 km/h (0 Bft)
19.10.2012 05:25 5,1 C 16,2 C 6,1 C 5,9 C 5,9 C 0,8 C 90 % 91 % 0 % 1017,1 hPa 0,0 l/m 0,0 km/h (0 Bft) W 270 0 min 0,0 UV-I 3,6 C 5,9 C 0,0 km/h (0 Bft)
19.10.2012 05:30 5,1 C 16,2 C 6,1 C 5,9 C 5,9 C 0,8 C 90 % 91 % 0 % 1017,1 hPa 0,0 l/m 0,0 km/h (0 Bft) W 270 0 min 0,0 UV-I 3,6 C 5,9 C 0,0 km/h (0 Bft)
19.10.2012 05:35 4,9 C 16,2 C 6,1 C 5,7 C 5,7 C 0,8 C 90 % 92 % 0 % 1017,1 hPa 0,0 l/m 0,0 km/h (0 Bft) W 270 0 min 0,0 UV-I 3,4 C 5,7 C 0,0 km/h (0 Bft)
19.10.2012 05:40 4,9 C 16,2 C 6,1 C 5,7 C 5,7 C 0,8 C 90 % 92 % 0 % 1017,1 hPa 0,0 l/m 0,0 km/h (0 Bft) W 270 0 min 0,0 UV-I 3,4 C 5,7 C 0,0 km/h (0 Bft)
19.10.2012 05:45 5,1 C 16,1 C 6,0 C 5,9 C 5,9 C 0,8 C 90 % 91 % 0 % 1017,1 hPa 0,0 l/m 0,0 km/h (0 Bft) O-NO 67 0 min 0,0 UV-I 3,6 C 5,9 C 0,0 km/h (0 Bft)
19.10.2012 05:50 5,1 C 16,1 C 6,0 C 5,9 C 5,9 C 0,8 C 90 % 91 % 0 % 1017,1 hPa 0,0 l/m 0,0 km/h (0 Bft) O-NO 67 0 min 0,0 UV-I 3,6 C 5,9 C 0,0 km/h (0 Bft)
19.10.2012 05:55 5,1 C 16,1 C 6,1 C 5,9 C 5,9 C 0,8 C 91 % 92 % 0 % 1017,1 hPa 0,0 l/m 0,0 km/h (0 Bft) W-SW 247 0 min 0,0 UV-I 3,8 C 5,9 C 0,0 km/h (0 Bft)
19.10.2012 06:00 5,1 C 16,1 C 6,1 C 5,9 C 5,9 C 0,8 C 91 % 92 % 0 % 1017,1 hPa 0,0 l/m 0,0 km/h (0 Bft) W-SW 247 0 min 0,0 UV-I 3,8 C 5,9 C 0,0 km/h (0 Bft)
19.10.2012 06:05 5,0 C 16,1 C 6,0 C 5,7 C 5,7 C 0,7 C 90 % 91 % 0 % 1017,4 hPa 0,0 l/m 0,0 km/h (0 Bft) S 180 0 min 0,0 UV-I 3,5 C 5,7 C 0,0 km/h (0 Bft)
19.10.2012 06:10 5,0 C 16,1 C 6,0 C 5,7 C 5,7 C 0,7 C 90 % 91 % 0 % 1017,4 hPa 0,0 l/m 0,0 km/h (0 Bft) S 180 0 min 0,0 UV-I 3,5 C 5,7 C 0,0 km/h (0 Bft)
19.10.2012 06:15 4,8 C 16,1 C 6,0 C 5,5 C 5,5 C 0,7 C 90 % 92 % 0 % 1017,4 hPa 0,0 l/m 0,0 km/h (0 Bft) O-NO 67 0 min 0,0 UV-I 3,3 C 5,5 C 0,0 km/h (0 Bft)
19.10.2012 06:20 4,9 C 16,1 C 6,0 C 5,6 C 5,6 C 0,7 C 90 % 92 % 0 % 1016,9 hPa 0,0 l/m 0,0 km/h (0 Bft) O 90 0 min 0,0 UV-I 3,4 C 5,6 C 0,0 km/h (0 Bft)
19.10.2012 06:25 5,0 C 16,1 C 6,0 C 5,7 C 5,7 C 0,7 C 91 % 92 % 0 % 1016,9 hPa 0,0 l/m 0,0 km/h (0 Bft) O 90 0 min 0,0 UV-I 3,7 C 5,7 C 0,0 km/h (0 Bft)
19.10.2012 06:30 5,1 C 16,1 C 5,9 C 5,8 C 5,8 C 0,7 C 91 % 92 % 0 % 1016,9 hPa 0,0 l/m 0,0 km/h (0 Bft) O-NO 67 0 min 0,0 UV-I 3,8 C 5,8 C 0,0 km/h (0 Bft)
19.10.2012 06:35 5,1 C 16,1 C 6,0 C 5,8 C 5,8 C 0,7 C 91 % 92 % 0 % 1016,9 hPa 0,0 l/m 0,0 km/h (0 Bft) O-SO 112 0 min 0,0 UV-I 3,8 C 5,8 C 0,0 km/h (0 Bft)
19.10.2012 06:46 5,0 C 16,0 C 5,9 C 5,6 C 5,6 C 0,6 C 91 % 92 % 0 % 1017,0 hPa 0,0 l/m 0,0 km/h (0 Bft) N 0 0 min 0,0 UV-I 3,7 C 5,6 C 0,0 km/h (0 Bft)
19.10.2012 06:55 4,9 C 16,0 C 6,0 C 5,7 C 5,7 C 0,8 C 91 % 92 % 0 % 1017,0 hPa 0,0 l/m 0,0 km/h (0 Bft) O-NO 67 0 min 0,0 UV-I 3,6 C 5,7 C 0,0 km/h (0 Bft)
19.10.2012 07:00 4,9 C 16,0 C 6,0 C 5,6 C 5,6 C 0,7 C 91 % 92 % 0 % 1017,4 hPa 0,0 l/m 0,0 km/h (0 Bft) O-NO 67 0 min 0,0 UV-I 3,6 C 5,6 C 0,0 km/h (0 Bft)
19.10.2012 07:05 4,9 C 16,0 C 5,9 C 5,4 C 5,4 C 0,5 C 91 % 92 % 0 % 1017,4 hPa 0,0 l/m 0,3 km/h (0 Bft) S-SW 202 0 min 0,0 UV-I 3,6 C 5,4 C 0,0 km/h (0 Bft)
19.10.2012 07:10 4,6 C 16,0 C 5,6 C 5,0 C 5,0 C 0,4 C 90 % 91 % 0 % 1017,4 hPa 0,0 l/m 0,3 km/h (0 Bft) O-NO 67 0 min 0,0 UV-I 3,1 C 5,0 C 0,0 km/h (0 Bft)
19.10.2012 07:15 4,5 C 16,0 C 5,6 C 4,8 C 4,8 C 0,3 C 90 % 91 % 0 % 1017,4 hPa 0,0 l/m 0,0 km/h (0 Bft) O-SO 112 0 min 0,0 UV-I 3,0 C 4,8 C 0,0 km/h (0 Bft)
19.10.2012 07:20 4,4 C 16,0 C 5,6 C 5,0 C 5,0 C 0,6 C 90 % 91 % 0 % 1017,9 hPa 0,0 l/m 0,0 km/h (0 Bft) O-NO 67 0 min 0,0 UV-I 2,9 C 5,0 C 0,0 km/h (0 Bft)
19.10.2012 07:25 4,6 C 16,0 C 5,6 C 5,4 C 5,4 C 0,8 C 90 % 91 % 0 % 1017,9 hPa 0,0 l/m 0,0 km/h (0 Bft) O-NO 67 0 min 0,0 UV-I 3,1 C 5,4 C 0,0 km/h (0 Bft)
19.10.2012 07:30 4,6 C 15,9 C 5,6 C 5,4 C 5,4 C 0,8 C 90 % 91 % 0 % 1017,9 hPa 0,0 l/m 0,0 km/h (0 Bft) W 270 0 min 0,0 UV-I 3,1 C 5,4 C 0,0 km/h (0 Bft)
19.10.2012 07:35 4,6 C 15,9 C 5,6 C 5,4 C 5,4 C 0,8 C 90 % 91 % 0 % 1017,9 hPa 0,0 l/m 0,0 km/h (0 Bft) W 270 0 min 0,0 UV-I 3,1 C 5,4 C 0,0 km/h (0 Bft)
19.10.2012 07:40 4,5 C 15,9 C 5,6 C 5,4 C 5,4 C 0,9 C 90 % 91 % 0 % 1017,2 hPa 0,0 l/m 0,0 km/h (0 Bft) O-NO 67 0 min 0,0 UV-I 3,0 C 5,4 C 0,0 km/h (0 Bft)
19.10.2012 07:45 4,4 C 15,9 C 5,7 C 5,2 C 5,2 C 0,8 C 90 % 91 % 0 % 1017,2 hPa 0,0 l/m 0,0 km/h (0 Bft) O-NO 67 0 min 0,0 UV-I 2,9 C 5,2 C 0,0 km/h (0 Bft)
19.10.2012 07:50 4,4 C 15,9 C 5,9 C 5,1 C 5,1 C 0,7 C 90 % 92 % 0 % 1017,2 hPa 0,0 l/m 0,0 km/h (0 Bft) NO 45 0 min 0,0 UV-I 2,9 C 5,1 C 0,0 km/h (0 Bft)
19.10.2012 07:55 4,4 C 15,9 C 5,9 C 5,1 C 5,1 C 0,7 C 90 % 92 % 18 % 1017,2 hPa 0,0 l/m 0,0 km/h (0 Bft) SW 225 5 min 0,0 UV-I 2,9 C 5,1 C 0,0 km/h (0 Bft)
19.10.2012 08:00 4,4 C 15,9 C 5,8 C 5,0 C 5,0 C 0,6 C 90 % 91 % 16 % 1017,2 hPa 0,0 l/m 0,0 km/h (0 Bft) SW 225 5 min 0,0 UV-I 2,9 C 5,0 C 0,0 km/h (0 Bft)
19.10.2012 08:05 4,3 C 15,9 C 5,7 C 5,1 C 5,1 C 0,8 C 90 % 91 % 21 % 1017,2 hPa 0,0 l/m 0,0 km/h (0 Bft) O-NO 67 5 min 0,0 UV-I 2,8 C 5,1 C 0,0 km/h (0 Bft)
19.10.2012 08:10 4,3 C 15,9 C 5,7 C 5,1 C 5,1 C 0,8 C 90 % 91 % 21 % 1017,2 hPa 0,0 l/m 0,0 km/h (0 Bft) SW 225 5 min 0,0 UV-I 2,8 C 5,1 C 0,0 km/h (0 Bft)
19.10.2012 08:15 4,3 C 15,9 C 5,7 C 5,1 C 5,1 C 0,8 C 90 % 91 % 21 % 1017,2 hPa 0,0 l/m 0,0 km/h (0 Bft) SW 225 5 min 0,0 UV-I 2,8 C 5,1 C 0,0 km/h (0 Bft)
19.10.2012 08:20 4,3 C 15,8 C 5,8 C 5,1 C 5,1 C 0,8 C 90 % 91 % 21 % 1017,5 hPa 0,0 l/m 0,5 km/h (0 Bft) SW 225 0 min 0,0 UV-I 2,8 C 5,1 C 0,0 km/h (0 Bft)
19.10.2012 08:25 4,3 C 15,8 C 5,7 C 4,8 C 4,8 C 0,5 C 90 % 91 % 13 % 1017,5 hPa 0,0 l/m 0,5 km/h (0 Bft) O 90 0 min 0,0 UV-I 2,8 C 4,8 C 0,0 km/h (0 Bft)
19.10.2012 08:30 4,3 C 15,8 C 5,6 C 4,8 C 4,8 C 0,5 C 90 % 91 % 13 % 1017,5 hPa 0,0 l/m 0,3 km/h (0 Bft) O 90 0 min 0,0 UV-I 2,8 C 4,8 C 2,7 km/h (1 Bft)
19.10.2012 08:35 4,3 C 15,8 C 5,6 C 4,9 C 4,9 C 0,6 C 90 % 91 % 16 % 1017,5 hPa 0,0 l/m 0,3 km/h (0 Bft) O 90 0 min 0,0 UV-I 2,8 C 4,9 C 0,0 km/h (0 Bft)
19.10.2012 08:40 4,3 C 15,8 C 5,7 C 5,1 C 5,1 C 0,8 C 91 % 91 % 21 % 1017,5 hPa 0,0 l/m 0,2 km/h (0 Bft) O-NO 67 0 min 0,0 UV-I 3,0 C 5,1 C 0,0 km/h (0 Bft)
19.10.2012 08:45 4,4 C 15,8 C 5,7 C 5,4 C 5,4 C 1,0 C 91 % 91 % 26 % 1017,5 hPa 0,0 l/m 0,0 km/h (0 Bft) O-NO 67 0 min 0,0 UV-I 3,1 C 5,4 C 0,0 km/h (0 Bft)
19.10.2012 08:50 4,5 C 15,8 C 5,9 C 5,5 C 5,5 C 1,0 C 91 % 92 % 26 % 1017,5 hPa 0,0 l/m 0,0 km/h (0 Bft) O 90 0 min 0,0 UV-I 3,2 C 5,5 C 0,0 km/h (0 Bft)
19.10.2012 08:55 4,7 C 15,8 C 6,0 C 5,7 C 5,7 C 1,0 C 91 % 92 % 26 % 1017,5 hPa 0,0 l/m 0,0 km/h (0 Bft) O-NO 67 0 min 0,0 UV-I 3,4 C 5,7 C 0,0 km/h (0 Bft)
19.10.2012 09:00 4,6 C 15,8 C 6,3 C 6,1 C 6,1 C 1,5 C 91 % 92 % 39 % 1017,5 hPa 0,0 l/m 0,0 km/h (0 Bft) O-NO 67 0 min 0,0 UV-I 3,3 C 6,1 C 0,0 km/h (0 Bft)
19.10.2012 09:05 4,8 C 15,8 C 6,5 C 6,6 C 6,6 C 1,8 C 91 % 92 % 47 % 1017,5 hPa 0,0 l/m 0,0 km/h (0 Bft) W-SW 247 0 min 0,0 UV-I 3,5 C 6,6 C 0,0 km/h (0 Bft)
19.10.2012 09:10 5,1 C 15,8 C 6,7 C 6,8 C 6,8 C 1,7 C 91 % 92 % 45 % 1017,5 hPa 0,0 l/m 0,0 km/h (0 Bft) S 180 0 min 0,0 UV-I 3,8 C 6,8 C 0,0 km/h (0 Bft)
19.10.2012 09:15 5,3 C 15,8 C 6,7 C 7,0 C 7,0 C 1,7 C 92 % 92 % 45 % 1017,5 hPa 0,0 l/m 0,0 km/h (0 Bft) NW 315 0 min 0,0 UV-I 4,1 C 7,0 C 1,6 km/h (1 Bft)
19.10.2012 09:20 5,4 C 15,8 C 6,9 C 7,2 C 7,2 C 1,8 C 92 % 92 % 47 % 1017,6 hPa 0,0 l/m 0,0 km/h (0 Bft) NW 315 0 min 0,0 UV-I 4,2 C 7,2 C 0,0 km/h (0 Bft)
19.10.2012 09:25 5,5 C 15,8 C 7,1 C 7,3 C 7,3 C 1,8 C 92 % 93 % 47 % 1017,6 hPa 0,0 l/m 0,0 km/h (0 Bft) NW 315 0 min 0,0 UV-I 4,3 C 7,3 C 0,0 km/h (0 Bft)
19.10.2012 09:30 5,9 C 15,8 C 7,2 C 7,6 C 7,6 C 1,7 C 92 % 93 % 45 % 1017,6 hPa 0,0 l/m 0,0 km/h (0 Bft) NW 315 0 min 0,0 UV-I 4,7 C 7,6 C 0,0 km/h (0 Bft)
19.10.2012 09:35 6,1 C 15,7 C 7,5 C 7,8 C 7,8 C 1,7 C 92 % 93 % 45 % 1017,6 hPa 0,0 l/m 0,0 km/h (0 Bft) W-NW 292 0 min 0,0 UV-I 4,9 C 7,8 C 0,0 km/h (0 Bft)
19.10.2012 09:40 6,3 C 15,7 C 7,8 C 8,2 C 8,2 C 1,9 C 92 % 93 % 50 % 1017,6 hPa 0,0 l/m 0,0 km/h (0 Bft) NO 45 0 min 0,0 UV-I 5,1 C 8,2 C 0,0 km/h (0 Bft)
19.10.2012 09:45 6,5 C 15,7 C 8,1 C 8,7 C 8,7 C 2,2 C 92 % 93 % 58 % 1017,6 hPa 0,0 l/m 0,0 km/h (0 Bft) NW 315 0 min 0,0 UV-I 5,3 C 8,7 C 0,0 km/h (0 Bft)
19.10.2012 09:50 6,8 C 15,7 C 8,3 C 9,0 C 9,0 C 2,2 C 92 % 93 % 58 % 1017,6 hPa 0,0 l/m 0,0 km/h (0 Bft) W-SW 247 0 min 0,1 UV-I 5,6 C 9,0 C 0,0 km/h (0 Bft)
19.10.2012 09:55 7,1 C 15,7 C 8,7 C 9,3 C 9,3 C 2,2 C 93 % 93 % 58 % 1017,6 hPa 0,0 l/m 0,0 km/h (0 Bft) W-SW 247 0 min 0,1 UV-I 6,0 C 9,3 C 0,0 km/h (0 Bft)
19.10.2012 10:00 7,3 C 15,7 C 8,8 C 9,7 C 9,7 C 2,4 C 93 % 93 % 63 % 1017,5 hPa 0,0 l/m 0,0 km/h (0 Bft) W 270 0 min 0,1 UV-I 6,2 C 9,7 C 0,0 km/h (0 Bft)
19.10.2012 10:05 7,6 C 15,6 C 9,1 C 10,1 C 10,1 C 2,5 C 93 % 93 % 66 % 1017,5 hPa 0,0 l/m 0,0 km/h (0 Bft) N-NO 22 0 min 0,1 UV-I 6,5 C 10,1 C 0,0 km/h (0 Bft)
19.10.2012 10:10 7,9 C 15,6 C 9,5 C 10,5 C 10,5 C 2,6 C 93 % 93 % 68 % 1017,5 hPa 0,0 l/m 0,0 km/h (0 Bft) N-NO 22 0 min 0,2 UV-I 6,8 C 10,5 C 0,0 km/h (0 Bft)
19.10.2012 10:15 8,1 C 15,5 C 9,7 C 10,7 C 10,7 C 2,6 C 93 % 93 % 68 % 1017,5 hPa 0,0 l/m 0,0 km/h (0 Bft) NW 315 0 min 0,2 UV-I 7,0 C 10,7 C 0,0 km/h (0 Bft)
19.10.2012 10:20 8,2 C 15,5 C 10,0 C 11,1 C 11,1 C 2,9 C 92 % 93 % 76 % 1017,8 hPa 0,0 l/m 0,0 km/h (0 Bft) W-SW 247 0 min 0,2 UV-I 7,0 C 11,1 C 0,0 km/h (0 Bft)
19.10.2012 10:25 8,5 C 15,4 C 10,2 C 11,5 C 11,5 C 3,0 C 93 % 92 % 79 % 1017,8 hPa 0,0 l/m 0,0 km/h (0 Bft) W-SW 247 0 min 0,2 UV-I 7,4 C 11,5 C 0,0 km/h (0 Bft)
19.10.2012 10:30 8,8 C 15,4 C 10,3 C 12,0 C 12,0 C 3,2 C 93 % 92 % 84 % 1017,8 hPa 0,0 l/m 0,0 km/h (0 Bft) SW 225 0 min 0,3 UV-I 7,7 C 12,0 C 0,0 km/h (0 Bft)
19.10.2012 10:35 9,1 C 15,4 C 10,5 C 12,2 C 12,2 C 3,1 C 93 % 92 % 82 % 1017,8 hPa 0,0 l/m 0,0 km/h (0 Bft) SW 225 0 min 0,3 UV-I 8,0 C 12,2 C 0,0 km/h (0 Bft)
19.10.2012 10:40 9,2 C 15,4 C 10,6 C 12,6 C 12,6 C 3,4 C 93 % 92 % 89 % 1017,4 hPa 0,0 l/m 0,0 km/h (0 Bft) SW 225 5 min 0,3 UV-I 8,1 C 12,6 C 0,0 km/h (0 Bft)
19.10.2012 10:45 9,5 C 15,3 C 10,7 C 12,8 C 12,8 C 3,3 C 92 % 91 % 87 % 1017,4 hPa 0,0 l/m 0,0 km/h (0 Bft) SW 225 5 min 0,4 UV-I 8,3 C 12,8 C 0,0 km/h (0 Bft)
19.10.2012 10:50 9,7 C 15,3 C 10,8 C 13,0 C 13,0 C 3,3 C 93 % 91 % 87 % 1017,4 hPa 0,0 l/m 0,0 km/h (0 Bft) SW 225 5 min 0,4 UV-I 8,6 C 13,0 C 0,0 km/h (0 Bft)
19.10.2012 10:55 9,9 C 15,4 C 11,1 C 13,2 C 13,2 C 3,3 C 93 % 91 % 87 % 1017,4 hPa 0,0 l/m 0,0 km/h (0 Bft) W-SW 247 5 min 0,4 UV-I 8,8 C 13,2 C 0,0 km/h (0 Bft)
19.10.2012 11:00 10,0 C 15,4 C 11,2 C 13,4 C 13,4 C 3,4 C 93 % 91 % 89 % 1017,2 hPa 0,0 l/m 0,0 km/h (0 Bft) W-SW 247 5 min 0,4 UV-I 8,9 C 13,4 C 0,0 km/h (0 Bft)
19.10.2012 11:05 10,4 C 15,3 C 11,4 C 14,0 C 14,0 C 3,6 C 93 % 91 % 95 % 1017,2 hPa 0,0 l/m 1,0 km/h (0 Bft) SW 225 5 min 0,5 UV-I 9,3 C 14,0 C 3,2 km/h (1 Bft)
19.10.2012 11:10 10,8 C 15,3 C 11,6 C 14,3 C 14,3 C 3,5 C 93 % 91 % 92 % 1017,2 hPa 0,0 l/m 1,8 km/h (1 Bft) S-SW 202 5 min 0,5 UV-I 9,7 C 14,3 C 3,9 km/h (1 Bft)
19.10.2012 11:15 11,5 C 15,3 C 11,8 C 14,7 C 14,7 C 3,2 C 92 % 90 % 84 % 1017,2 hPa 0,0 l/m 2,3 km/h (1 Bft) SW 225 0 min 0,5 UV-I 10,2 C 14,7 C 4,2 km/h (1 Bft)
19.10.2012 11:20 11,9 C 15,3 C 12,0 C 15,1 C 15,1 C 3,2 C 92 % 90 % 84 % 1017,4 hPa 0,0 l/m 2,3 km/h (1 Bft) S-SW 202 0 min 0,6 UV-I 10,6 C 15,1 C 4,7 km/h (1 Bft)
19.10.2012 11:25 12,4 C 15,2 C 12,3 C 15,6 C 15,6 C 3,2 C 91 % 90 % 84 % 1017,4 hPa 0,0 l/m 2,3 km/h (1 Bft) SW 225 0 min 0,6 UV-I 11,0 C 15,6 C 3,7 km/h (1 Bft)
19.10.2012 11:30 12,8 C 15,2 C 12,5 C 16,0 C 16,0 C 3,2 C 90 % 90 % 84 % 1017,4 hPa 0,0 l/m 2,4 km/h (1 Bft) S 180 0 min 0,7 UV-I 11,2 C 16,0 C 2,4 km/h (1 Bft)
19.10.2012 11:35 13,3 C 15,2 C 12,7 C 16,5 C 16,5 C 3,2 C 88 % 89 % 84 % 1017,4 hPa 0,0 l/m 2,4 km/h (1 Bft) S-SW 202 0 min 0,7 UV-I 11,4 C 16,5 C 2,6 km/h (1 Bft)
19.10.2012 11:40 13,7 C 15,3 C 13,0 C 16,7 C 16,7 C 3,0 C 87 % 89 % 79 % 1017,3 hPa 0,0 l/m 1,6 km/h (1 Bft) W-SW 247 0 min 0,7 UV-I 11,6 C 16,7 C 0,0 km/h (0 Bft)
19.10.2012 11:45 13,9 C 15,3 C 13,3 C 16,9 C 16,9 C 3,0 C 86 % 88 % 79 % 1017,3 hPa 0,0 l/m 0,5 km/h (0 Bft) S 180 0 min 0,8 UV-I 11,6 C 16,9 C 0,0 km/h (0 Bft)
19.10.2012 11:50 14,0 C 15,3 C 13,4 C 17,3 C 17,3 C 3,3 C 84 % 88 % 87 % 1017,3 hPa 0,0 l/m 0,3 km/h (0 Bft) W-SW 247 5 min 0,8 UV-I 11,3 C 17,3 C 0,0 km/h (0 Bft)
19.10.2012 11:55 14,6 C 15,3 C 13,6 C 17,5 C 17,5 C 2,9 C 81 % 87 % 76 % 1017,3 hPa 0,0 l/m 0,5 km/h (0 Bft) N-NO 22 0 min 0,8 UV-I 11,4 C 17,5 C 0,0 km/h (0 Bft)
19.10.2012 12:00 15,0 C 15,3 C 13,7 C 17,8 C 17,8 C 2,8 C 80 % 87 % 74 % 1017,3 hPa 0,0 l/m 1,1 km/h (1 Bft) SW 225 0 min 0,8 UV-I 11,6 C 17,8 C 1,6 km/h (1 Bft)
19.10.2012 12:05 15,6 C 15,3 C 13,9 C 18,3 C 18,3 C 2,7 C 78 % 86 % 71 % 1017,3 hPa 0,0 l/m 1,3 km/h (1 Bft) W-SW 247 0 min 0,9 UV-I 11,8 C 18,3 C 2,9 km/h (1 Bft)
19.10.2012 12:10 15,9 C 15,3 C 14,0 C 18,5 C 18,5 C 2,6 C 76 % 86 % 68 % 1017,3 hPa 0,0 l/m 1,4 km/h (1 Bft) W 270 0 min 0,9 UV-I 11,7 C 18,5 C 2,7 km/h (1 Bft)
19.10.2012 12:15 16,4 C 15,4 C 14,3 C 19,3 C 19,3 C 2,9 C 75 % 86 % 76 % 1017,3 hPa 0,0 l/m 1,4 km/h (1 Bft) NW 315 0 min 1,1 UV-I 12,0 C 19,3 C 0,0 km/h (0 Bft)
19.10.2012 12:20 16,9 C 15,4 C 14,8 C 21,7 C 21,7 C 4,8 C 73 % 85 % 100 % 1017,2 hPa 0,0 l/m 0,8 km/h (0 Bft) O-SO 112 5 min 1,1 UV-I 12,0 C 21,7 C 1,8 km/h (1 Bft)
19.10.2012 12:25 17,2 C 15,4 C 15,1 C 23,6 C 23,6 C 6,4 C 72 % 84 % 100 % 1017,2 hPa 0,0 l/m 0,3 km/h (0 Bft) SW 225 5 min 1,1 UV-I 12,1 C 23,6 C 0,0 km/h (0 Bft)
19.10.2012 12:30 17,3 C 15,4 C 15,1 C 24,6 C 24,6 C 7,3 C 72 % 83 % 100 % 1017,2 hPa 0,0 l/m 0,2 km/h (0 Bft) NO 45 5 min 1,0 UV-I 12,2 C 24,6 C 0,0 km/h (0 Bft)
19.10.2012 12:35 17,7 C 15,4 C 15,2 C 25,4 C 25,4 C 7,7 C 71 % 83 % 100 % 1017,2 hPa 0,0 l/m 0,2 km/h (0 Bft) W 270 5 min 1,0 UV-I 12,4 C 25,4 C 2,6 km/h (1 Bft)
19.10.2012 12:46 18,0 C 15,5 C 15,5 C 26,0 C 26,0 C 8,0 C 70 % 82 % 100 % 1016,9 hPa 0,0 l/m 1,9 km/h (1 Bft) N 0 11 min 1,0 UV-I 12,4 C 26,0 C 4,8 km/h (1 Bft)
19.10.2012 12:55 18,4 C 15,5 C 15,8 C 26,7 C 26,7 C 8,3 C 69 % 81 % 100 % 1016,9 hPa 0,0 l/m 1,0 km/h (0 Bft) S 180 9 min 1,0 UV-I 12,6 C 26,7 C 1,8 km/h (1 Bft)
19.10.2012 13:00 18,7 C 15,5 C 16,0 C 27,1 C 27,1 C 8,4 C 68 % 81 % 100 % 1016,6 hPa 0,0 l/m 0,3 km/h (0 Bft) W-NW 292 5 min 1,1 UV-I 12,7 C 27,1 C 0,0 km/h (0 Bft)
19.10.2012 13:05 19,0 C 15,5 C 16,3 C 27,0 C 27,0 C 8,0 C 68 % 81 % 100 % 1016,6 hPa 0,0 l/m 0,6 km/h (0 Bft) O-SO 112 5 min 1,0 UV-I 13,0 C 27,0 C 0,0 km/h (0 Bft)
19.10.2012 13:10 19,1 C 15,6 C 16,5 C 27,6 C 27,6 C 8,5 C 68 % 81 % 100 % 1016,6 hPa 0,0 l/m 0,5 km/h (0 Bft) W-SW 247 5 min 1,1 UV-I 13,1 C 27,6 C 0,0 km/h (0 Bft)
19.10.2012 13:15 19,3 C 15,5 C 16,4 C 28,1 C 28,1 C 8,8 C 68 % 80 % 100 % 1016,6 hPa 0,0 l/m 0,2 km/h (0 Bft) W 270 5 min 1,0 UV-I 13,2 C 28,1 C 0,0 km/h (0 Bft)
19.10.2012 13:20 19,3 C 15,5 C 16,7 C 28,7 C 28,7 C 9,4 C 67 % 80 % 100 % 1016,3 hPa 0,0 l/m 0,2 km/h (0 Bft) NW 315 5 min 1,0 UV-I 13,0 C 28,7 C 0,0 km/h (0 Bft)
19.10.2012 13:25 19,5 C 15,5 C 16,8 C 28,8 C 28,8 C 9,3 C 67 % 80 % 100 % 1016,3 hPa 0,0 l/m 0,6 km/h (0 Bft) W-SW 247 5 min 1,1 UV-I 13,2 C 28,8 C 0,0 km/h (0 Bft)
19.10.2012 13:30 19,6 C 15,5 C 16,8 C 28,8 C 28,8 C 9,2 C 67 % 80 % 100 % 1016,3 hPa 0,0 l/m 0,6 km/h (0 Bft) SW 225 5 min 1,0 UV-I 13,3 C 28,8 C 2,4 km/h (1 Bft)
19.10.2012 13:35 19,7 C 15,5 C 17,2 C 28,5 C 28,5 C 8,8 C 67 % 79 % 100 % 1016,3 hPa 0,0 l/m 1,0 km/h (0 Bft) W-SW 247 5 min 1,0 UV-I 13,4 C 28,5 C 0,0 km/h (0 Bft)
19.10.2012 13:40 19,8 C 15,6 C 17,3 C 27,8 C 27,8 C 8,0 C 66 % 79 % 100 % 1015,7 hPa 0,0 l/m 0,5 km/h (0 Bft) N-NW 337 5 min 1,0 UV-I 13,3 C 27,8 C 0,0 km/h (0 Bft)
19.10.2012 13:45 20,1 C 15,6 C 17,4 C 26,3 C 26,3 C 6,2 C 66 % 78 % 100 % 1015,7 hPa 0,0 l/m 0,3 km/h (0 Bft) SW 225 5 min 1,0 UV-I 13,5 C 26,3 C 2,9 km/h (1 Bft)
19.10.2012 13:50 20,4 C 15,6 C 17,7 C 26,6 C 26,6 C 6,2 C 66 % 79 % 100 % 1015,7 hPa 0,0 l/m 0,6 km/h (0 Bft) S 180 5 min 0,9 UV-I 13,8 C 26,6 C 0,0 km/h (0 Bft)
19.10.2012 13:55 20,7 C 15,6 C 17,9 C 26,5 C 26,5 C 5,8 C 65 % 78 % 100 % 1015,7 hPa 0,0 l/m 0,8 km/h (0 Bft) W-SW 247 5 min 0,9 UV-I 13,9 C 26,5 C 1,8 km/h (1 Bft)
19.10.2012 14:00 20,8 C 15,6 C 17,9 C 26,6 C 26,6 C 5,8 C 65 % 78 % 100 % 1015,5 hPa 0,0 l/m 0,6 km/h (0 Bft) W-SW 247 5 min 0,9 UV-I 14,0 C 26,6 C 1,9 km/h (1 Bft)
19.10.2012 14:05 21,2 C 15,6 C 18,0 C 27,1 C 27,1 C 5,9 C 65 % 78 % 100 % 1015,5 hPa 0,0 l/m 1,0 km/h (0 Bft) W-SW 247 5 min 0,9 UV-I 14,4 C 27,1 C 1,9 km/h (1 Bft)
19.10.2012 14:10 21,4 C 15,7 C 18,3 C 26,8 C 26,8 C 5,4 C 65 % 77 % 100 % 1015,5 hPa 0,0 l/m 1,0 km/h (0 Bft) SW 225 5 min 0,9 UV-I 14,5 C 26,8 C 0,0 km/h (0 Bft)
19.10.2012 14:15 21,7 C 15,6 C 18,9 C 26,6 C 26,6 C 4,9 C 64 % 78 % 100 % 1015,5 hPa 0,0 l/m 0,5 km/h (0 Bft) O 90 5 min 0,9 UV-I 14,6 C 26,6 C 0,0 km/h (0 Bft)
19.10.2012 14:20 21,9 C 15,6 C 19,3 C 26,1 C 26,1 C 4,2 C 64 % 77 % 100 % 1015,1 hPa 0,0 l/m 0,2 km/h (0 Bft) O-NO 67 5 min 0,8 UV-I 14,8 C 26,1 C 0,0 km/h (0 Bft)
19.10.2012 14:25 22,0 C 15,7 C 19,5 C 26,7 C 26,7 C 4,7 C 63 % 76 % 100 % 1015,1 hPa 0,0 l/m 0,8 km/h (0 Bft) O 90 5 min 0,8 UV-I 14,6 C 26,7 C 2,9 km/h (1 Bft)
19.10.2012 14:30 22,4 C 15,7 C 19,9 C 26,1 C 26,1 C 3,7 C 60 % 74 % 97 % 1015,1 hPa 0,0 l/m 1,6 km/h (1 Bft) O-NO 67 5 min 0,8 UV-I 14,2 C 26,1 C 3,5 km/h (1 Bft)
19.10.2012 14:35 22,9 C 15,7 C 20,4 C 25,5 C 25,5 C 2,6 C 57 % 72 % 68 % 1015,1 hPa 0,0 l/m 2,7 km/h (1 Bft) O-NO 67 0 min 0,8 UV-I 13,9 C 25,5 C 5,3 km/h (1 Bft)
19.10.2012 14:40 23,0 C 15,7 C 20,5 C 26,0 C 26,0 C 3,0 C 57 % 72 % 79 % 1014,2 hPa 0,0 l/m 3,1 km/h (1 Bft) O-NO 67 0 min 0,8 UV-I 14,0 C 26,0 C 6,4 km/h (2 Bft)
19.10.2012 14:45 23,0 C 15,8 C 20,5 C 26,9 C 26,9 C 3,9 C 56 % 71 % 100 % 1014,2 hPa 0,0 l/m 3,2 km/h (1 Bft) O-NO 67 5 min 0,7 UV-I 13,7 C 26,9 C 6,6 km/h (2 Bft)
19.10.2012 14:50 23,1 C 15,8 C 20,4 C 26,8 C 26,8 C 3,7 C 56 % 70 % 97 % 1014,2 hPa 0,0 l/m 3,4 km/h (1 Bft) O-NO 67 5 min 0,7 UV-I 13,8 C 26,8 C 2,9 km/h (1 Bft)
19.10.2012 14:55 23,1 C 15,8 C 20,5 C 26,6 C 26,6 C 3,5 C 54 % 70 % 92 % 1014,2 hPa 0,0 l/m 3,7 km/h (1 Bft) O 90 5 min 0,7 UV-I 13,3 C 26,6 C 3,7 km/h (1 Bft)
19.10.2012 15:00 23,1 C 15,8 C 20,7 C 26,4 C 26,4 C 3,3 C 54 % 69 % 87 % 1014,6 hPa 0,0 l/m 4,8 km/h (1 Bft) O-NO 67 5 min 0,7 UV-I 13,3 C 26,4 C 7,4 km/h (2 Bft)
19.10.2012 15:05 23,3 C 15,8 C 20,7 C 26,7 C 26,7 C 3,4 C 53 % 69 % 89 % 1014,6 hPa 0,0 l/m 5,0 km/h (1 Bft) O-NO 67 5 min 0,6 UV-I 13,2 C 26,7 C 6,3 km/h (2 Bft)
19.10.2012 15:10 23,3 C 15,9 C 20,8 C 26,7 C 26,7 C 3,4 C 53 % 67 % 89 % 1014,6 hPa 0,0 l/m 5,1 km/h (1 Bft) O-NO 67 5 min 0,6 UV-I 13,2 C 26,7 C 8,4 km/h (2 Bft)
19.10.2012 15:15 23,2 C 15,9 C 20,9 C 26,7 C 26,7 C 3,5 C 52 % 66 % 92 % 1014,6 hPa 0,0 l/m 5,5 km/h (1 Bft) O 90 5 min 0,6 UV-I 12,8 C 26,7 C 6,9 km/h (2 Bft)
19.10.2012 15:20 23,2 C 15,9 C 21,1 C 26,6 C 26,6 C 3,4 C 52 % 66 % 89 % 1014,7 hPa 0,0 l/m 6,3 km/h (2 Bft) O 90 5 min 0,5 UV-I 12,8 C 26,6 C 8,9 km/h (2 Bft)
19.10.2012 15:25 23,3 C 15,9 C 21,1 C 26,4 C 26,4 C 3,1 C 52 % 65 % 82 % 1014,7 hPa 0,0 l/m 6,3 km/h (2 Bft) O 90 0 min 0,5 UV-I 12,9 C 26,4 C 5,5 km/h (1 Bft)
19.10.2012 15:30 23,3 C 15,9 C 21,0 C 26,5 C 26,5 C 3,2 C 52 % 65 % 84 % 1014,7 hPa 0,0 l/m 5,5 km/h (1 Bft) O 90 0 min 0,5 UV-I 12,9 C 26,5 C 5,0 km/h (1 Bft)
19.10.2012 15:35 23,3 C 15,9 C 21,1 C 26,6 C 26,6 C 3,3 C 52 % 66 % 87 % 1014,7 hPa 0,0 l/m 5,0 km/h (1 Bft) O-NO 67 5 min 0,4 UV-I 12,9 C 26,6 C 5,6 km/h (1 Bft)
19.10.2012 15:40 23,3 C 16,0 C 21,0 C 26,6 C 26,6 C 3,3 C 52 % 66 % 87 % 1015,1 hPa 0,0 l/m 5,0 km/h (1 Bft) O-SO 112 5 min 0,4 UV-I 12,9 C 26,6 C 7,6 km/h (2 Bft)
19.10.2012 15:45 23,3 C 16,0 C 20,9 C 26,6 C 26,6 C 3,3 C 52 % 66 % 87 % 1015,1 hPa 0,0 l/m 5,0 km/h (1 Bft) O-NO 67 5 min 0,4 UV-I 12,9 C 26,6 C 7,2 km/h (2 Bft)
19.10.2012 15:50 23,2 C 16,0 C 21,0 C 26,4 C 26,4 C 3,2 C 52 % 66 % 84 % 1015,1 hPa 0,0 l/m 5,3 km/h (1 Bft) NO 45 5 min 0,3 UV-I 12,8 C 26,4 C 3,9 km/h (1 Bft)
19.10.2012 15:55 23,3 C 16,0 C 21,1 C 26,4 C 26,4 C 3,1 C 53 % 66 % 82 % 1015,1 hPa 0,0 l/m 5,1 km/h (1 Bft) O-NO 67 5 min 0,3 UV-I 13,2 C 26,4 C 3,5 km/h (1 Bft)
19.10.2012 16:00 23,3 C 16,0 C 21,1 C 26,4 C 26,4 C 3,1 C 52 % 65 % 82 % 1014,9 hPa 0,0 l/m 4,8 km/h (1 Bft) O-NO 67 5 min 0,3 UV-I 12,9 C 26,4 C 7,2 km/h (2 Bft)
19.10.2012 16:05 23,3 C 16,1 C 20,9 C 26,4 C 26,4 C 3,1 C 52 % 65 % 82 % 1014,9 hPa 0,0 l/m 4,7 km/h (1 Bft) O-NO 67 5 min 0,2 UV-I 12,9 C 26,4 C 4,8 km/h (1 Bft)
19.10.2012 16:10 23,3 C 16,1 C 20,9 C 26,4 C 26,4 C 3,1 C 52 % 66 % 82 % 1014,9 hPa 0,0 l/m 4,5 km/h (1 Bft) O-NO 67 5 min 0,2 UV-I 12,9 C 26,4 C 5,3 km/h (1 Bft)
19.10.2012 16:15 23,3 C 16,1 C 21,0 C 26,4 C 26,4 C 3,1 C 53 % 66 % 82 % 1014,9 hPa 0,0 l/m 4,3 km/h (1 Bft) O-NO 67 5 min 0,2 UV-I 13,2 C 26,4 C 5,8 km/h (2 Bft)
19.10.2012 16:20 23,2 C 16,1 C 20,9 C 26,2 C 26,2 C 3,0 C 53 % 66 % 79 % 1014,9 hPa 0,0 l/m 4,5 km/h (1 Bft) O-SO 112 5 min 0,1 UV-I 13,1 C 26,2 C 5,8 km/h (2 Bft)
19.10.2012 16:25 23,2 C 16,2 C 20,8 C 26,1 C 26,1 C 2,9 C 53 % 66 % 76 % 1014,9 hPa 0,0 l/m 4,2 km/h (1 Bft) O-NO 67 5 min 0,1 UV-I 13,1 C 26,1 C 2,7 km/h (1 Bft)
19.10.2012 16:30 23,2 C 16,2 C 20,7 C 26,2 C 26,2 C 3,0 C 54 % 66 % 79 % 1014,9 hPa 0,0 l/m 3,4 km/h (1 Bft) O-SO 112 5 min 0,1 UV-I 13,4 C 26,2 C 2,4 km/h (1 Bft)
19.10.2012 16:35 23,1 C 16,2 C 20,6 C 26,2 C 26,2 C 3,1 C 53 % 66 % 82 % 1014,9 hPa 0,0 l/m 3,2 km/h (1 Bft) O-NO 67 5 min 0,0 UV-I 13,0 C 26,2 C 4,0 km/h (1 Bft)
19.10.2012 16:40 22,9 C 16,2 C 20,4 C 26,1 C 26,1 C 3,2 C 54 % 66 % 84 % 1014,8 hPa 0,0 l/m 3,2 km/h (1 Bft) O-NO 67 5 min 0,0 UV-I 13,1 C 26,1 C 2,3 km/h (1 Bft)
19.10.2012 16:45 22,7 C 16,2 C 20,2 C 26,0 C 26,0 C 3,3 C 54 % 66 % 87 % 1014,8 hPa 0,0 l/m 1,9 km/h (1 Bft) O 90 5 min 0,0 UV-I 12,9 C 26,0 C 2,4 km/h (1 Bft)
19.10.2012 16:50 22,7 C 16,3 C 20,2 C 26,0 C 26,0 C 3,3 C 53 % 66 % 87 % 1014,8 hPa 0,0 l/m 1,8 km/h (1 Bft) O-SO 112 5 min 0,0 UV-I 12,6 C 26,0 C 2,1 km/h (1 Bft)
19.10.2012 16:55 22,7 C 16,3 C 20,0 C 26,0 C 26,0 C 3,3 C 54 % 66 % 87 % 1014,8 hPa 0,0 l/m 1,9 km/h (1 Bft) O-NO 67 5 min 0,0 UV-I 12,9 C 26,0 C 0,0 km/h (0 Bft)
19.10.2012 17:00 22,7 C 16,3 C 19,9 C 26,2 C 26,2 C 3,5 C 55 % 67 % 92 % 1014,8 hPa 0,0 l/m 1,0 km/h (0 Bft) NW 315 5 min 0,0 UV-I 13,2 C 26,2 C 0,0 km/h (0 Bft)
19.10.2012 17:05 22,6 C 16,3 C 19,5 C 26,6 C 26,6 C 4,0 C 56 % 68 % 100 % 1014,8 hPa 0,0 l/m 0,0 km/h (0 Bft) NW 315 5 min 0,0 UV-I 13,4 C 26,6 C 0,0 km/h (0 Bft)
19.10.2012 17:10 22,4 C 16,3 C 19,5 C 26,5 C 26,5 C 4,1 C 57 % 69 % 100 % 1014,8 hPa 0,0 l/m 0,0 km/h (0 Bft) O 90 5 min 0,0 UV-I 13,5 C 26,5 C 0,0 km/h (0 Bft)
19.10.2012 17:15 22,2 C 16,4 C 19,1 C 26,4 C 26,4 C 4,2 C 57 % 70 % 100 % 1014,8 hPa 0,0 l/m 0,0 km/h (0 Bft) O-NO 67 5 min 0,0 UV-I 13,3 C 26,4 C 0,0 km/h (0 Bft)
19.10.2012 17:20 22,0 C 16,4 C 19,1 C 25,7 C 25,7 C 3,7 C 57 % 70 % 97 % 1014,9 hPa 0,0 l/m 1,0 km/h (0 Bft) O-NO 67 5 min 0,0 UV-I 13,1 C 25,7 C 2,3 km/h (1 Bft)
19.10.2012 17:25 22,0 C 16,4 C 19,2 C 24,9 C 24,9 C 2,9 C 58 % 70 % 76 % 1014,9 hPa 0,0 l/m 1,1 km/h (1 Bft) O-SO 112 5 min 0,0 UV-I 13,3 C 24,9 C 0,0 km/h (0 Bft)
19.10.2012 17:30 21,9 C 16,4 C 19,0 C 24,4 C 24,4 C 2,5 C 58 % 70 % 66 % 1014,9 hPa 0,0 l/m 0,6 km/h (0 Bft) O-NO 67 5 min 0,0 UV-I 13,3 C 24,4 C 1,6 km/h (1 Bft)
19.10.2012 17:35 21,5 C 16,5 C 18,9 C 23,8 C 23,8 C 2,3 C 59 % 71 % 61 % 1014,9 hPa 0,0 l/m 1,1 km/h (1 Bft) O-NO 67 5 min 0,0 UV-I 13,1 C 23,8 C 2,4 km/h (1 Bft)
19.10.2012 17:40 21,2 C 16,5 C 18,4 C 22,9 C 22,9 C 1,7 C 60 % 71 % 45 % 1015,0 hPa 0,0 l/m 1,8 km/h (1 Bft) NO 45 5 min 0,0 UV-I 13,1 C 22,9 C 1,8 km/h (1 Bft)
19.10.2012 17:45 20,9 C 16,6 C 18,0 C 21,5 C 21,5 C 0,6 C 61 % 72 % 16 % 1015,0 hPa 0,0 l/m 0,6 km/h (0 Bft) NO 45 5 min 0,0 UV-I 13,1 C 21,5 C 0,0 km/h (0 Bft)
19.10.2012 17:50 20,5 C 16,6 C 17,7 C 20,7 C 20,7 C 0,2 C 62 % 73 % 5 % 1015,0 hPa 0,0 l/m 0,2 km/h (0 Bft) O-NO 67 0 min 0,0 UV-I 13,0 C 20,7 C 0,0 km/h (0 Bft)
19.10.2012 17:55 20,0 C 16,6 C 17,3 C 20,1 C 20,1 C 0,1 C 63 % 74 % 3 % 1015,0 hPa 0,0 l/m 0,0 km/h (0 Bft) O-SO 112 0 min 0,0 UV-I 12,7 C 20,1 C 0,0 km/h (0 Bft)
19.10.2012 18:00 19,7 C 16,6 C 17,0 C 19,4 C 18,9 C 0,0 C 63 % 74 % 0 % 1015,1 hPa 0,0 l/m 0,0 km/h (0 Bft) O-NO 67 0 min 0,0 UV-I 12,5 C 18,9 C 0,0 km/h (0 Bft)
19.10.2012 18:05 19,1 C 16,6 C 16,6 C 18,7 C 17,9 C 0,0 C 64 % 75 % 0 % 1015,1 hPa 0,0 l/m 0,0 km/h (0 Bft) O-NO 67 0 min 0,0 UV-I 12,1 C 17,9 C 0,0 km/h (0 Bft)
19.10.2012 18:10 18,7 C 16,6 C 16,3 C 18,3 C 17,4 C 0,0 C 65 % 76 % 0 % 1015,1 hPa 0,0 l/m 0,0 km/h (0 Bft) O-NO 67 0 min 0,0 UV-I 12,0 C 17,4 C 0,0 km/h (0 Bft)
19.10.2012 18:15 18,3 C 16,6 C 16,0 C 17,8 C 16,9 C 0,0 C 67 % 77 % 0 % 1015,1 hPa 0,0 l/m 0,0 km/h (0 Bft) W-NW 292 0 min 0,0 UV-I 12,1 C 16,9 C 0,0 km/h (0 Bft)
19.10.2012 18:20 17,9 C 16,7 C 15,7 C 17,3 C 16,2 C 0,0 C 67 % 77 % 0 % 1015,3 hPa 0,0 l/m 0,0 km/h (0 Bft) W-NW 292 0 min 0,0 UV-I 11,7 C 16,2 C 0,0 km/h (0 Bft)
19.10.2012 18:25 17,5 C 16,7 C 15,3 C 16,8 C 15,4 C 0,0 C 69 % 77 % 0 % 1015,3 hPa 0,0 l/m 0,0 km/h (0 Bft) W-NW 292 0 min 0,0 UV-I 11,7 C 15,4 C 0,0 km/h (0 Bft)
19.10.2012 18:30 17,0 C 16,7 C 15,0 C 16,4 C 15,1 C 0,0 C 69 % 78 % 0 % 1015,3 hPa 0,0 l/m 0,0 km/h (0 Bft) O 90 0 min 0,0 UV-I 11,3 C 15,1 C 0,0 km/h (0 Bft)
19.10.2012 18:35 16,6 C 16,7 C 14,6 C 16,0 C 14,9 C 0,0 C 72 % 79 % 0 % 1015,3 hPa 0,0 l/m 0,0 km/h (0 Bft) O 90 0 min 0,0 UV-I 11,5 C 14,9 C 0,0 km/h (0 Bft)
19.10.2012 18:46 16,0 C 16,9 C 14,0 C 15,4 C 14,1 C 0,0 C 73 % 80 % 0 % 1015,2 hPa 0,0 l/m 0,0 km/h (0 Bft) N 0 0 min 0,0 UV-I 11,2 C 14,1 C 0,0 km/h (0 Bft)
19.10.2012 18:55 15,4 C 16,9 C 13,8 C 14,8 C 13,5 C 0,0 C 75 % 82 % 0 % 1015,2 hPa 0,0 l/m 0,0 km/h (0 Bft) W-SW 247 0 min 0,0 UV-I 11,0 C 13,5 C 0,0 km/h (0 Bft)
19.10.2012 19:00 15,2 C 16,9 C 13,6 C 14,6 C 13,3 C 0,0 C 76 % 82 % 0 % 1015,4 hPa 0,0 l/m 0,0 km/h (0 Bft) O-NO 67 0 min 0,0 UV-I 11,0 C 13,3 C 0,0 km/h (0 Bft)
19.10.2012 19:05 14,9 C 17,0 C 13,5 C 14,3 C 13,2 C 0,0 C 77 % 83 % 0 % 1015,4 hPa 0,0 l/m 0,0 km/h (0 Bft) O 90 0 min 0,0 UV-I 10,9 C 13,2 C 0,0 km/h (0 Bft)
19.10.2012 19:10 14,7 C 17,0 C 13,3 C 14,2 C 13,1 C 0,0 C 77 % 83 % 0 % 1015,4 hPa 0,0 l/m 0,0 km/h (0 Bft) O 90 0 min 0,0 UV-I 10,7 C 13,1 C 0,0 km/h (0 Bft)
19.10.2012 19:15 14,4 C 17,0 C 13,1 C 13,9 C 12,8 C 0,0 C 78 % 83 % 0 % 1015,4 hPa 0,0 l/m 0,0 km/h (0 Bft) S-SW 202 0 min 0,0 UV-I 10,6 C 12,8 C 0,0 km/h (0 Bft)
19.10.2012 19:20 14,3 C 17,0 C 13,0 C 13,7 C 12,4 C 0,0 C 78 % 84 % 0 % 1015,8 hPa 0,0 l/m 0,0 km/h (0 Bft) W-SW 247 0 min 0,0 UV-I 10,5 C 12,4 C 0,0 km/h (0 Bft)
19.10.2012 19:25 13,9 C 17,0 C 12,8 C 13,3 C 12,2 C 0,0 C 79 % 84 % 0 % 1015,8 hPa 0,0 l/m 0,0 km/h (0 Bft) S 180 0 min 0,0 UV-I 10,3 C 12,2 C 0,0 km/h (0 Bft)
19.10.2012 19:30 13,5 C 17,0 C 12,7 C 13,0 C 12,1 C 0,0 C 79 % 85 % 0 % 1015,8 hPa 0,0 l/m 0,0 km/h (0 Bft) O 90 0 min 0,0 UV-I 9,9 C 12,1 C 0,0 km/h (0 Bft)
19.10.2012 19:35 13,1 C 17,0 C 12,4 C 12,7 C 11,9 C 0,0 C 80 % 84 % 0 % 1015,8 hPa 0,0 l/m 0,0 km/h (0 Bft) O 90 0 min 0,0 UV-I 9,7 C 11,9 C 0,0 km/h (0 Bft)
19.10.2012 19:40 12,9 C 17,0 C 12,3 C 12,5 C 11,7 C 0,0 C 80 % 84 % 0 % 1015,4 hPa 0,0 l/m 0,0 km/h (0 Bft) O-NO 67 0 min 0,0 UV-I 9,5 C 11,7 C 0,0 km/h (0 Bft)
19.10.2012 19:45 12,5 C 17,0 C 12,0 C 12,2 C 11,6 C 0,0 C 81 % 85 % 0 % 1015,4 hPa 0,0 l/m 0,0 km/h (0 Bft) O-NO 67 0 min 0,0 UV-I 9,3 C 11,6 C 0,0 km/h (0 Bft)
19.10.2012 19:50 12,2 C 17,1 C 11,8 C 12,0 C 11,5 C 0,0 C 81 % 85 % 0 % 1015,4 hPa 0,0 l/m 0,0 km/h (0 Bft) O-NO 67 0 min 0,0 UV-I 9,0 C 11,5 C 0,0 km/h (0 Bft)
19.10.2012 19:55 12,1 C 17,1 C 11,6 C 11,9 C 11,5 C 0,0 C 82 % 86 % 0 % 1015,4 hPa 0,0 l/m 0,2 km/h (0 Bft) O-NO 67 0 min 0,0 UV-I 9,1 C 11,5 C 2,4 km/h (1 Bft)
19.10.2012 20:00 11,9 C 17,1 C 11,7 C 11,8 C 11,6 C 0,0 C 82 % 86 % 0 % 1015,9 hPa 0,0 l/m 0,5 km/h (0 Bft) O-NO 67 0 min 0,0 UV-I 8,9 C 11,6 C 0,0 km/h (0 Bft)
19.10.2012 20:05 11,7 C 17,1 C 11,6 C 11,6 C 11,5 C 0,0 C 82 % 87 % 0 % 1015,9 hPa 0,0 l/m 0,2 km/h (0 Bft) S 180 0 min 0,0 UV-I 8,7 C 11,5 C 0,0 km/h (0 Bft)
19.10.2012 20:10 11,6 C 17,1 C 11,5 C 11,5 C 11,3 C 0,0 C 82 % 86 % 0 % 1015,9 hPa 0,0 l/m 0,0 km/h (0 Bft) W 270 0 min 0,0 UV-I 8,6 C 11,3 C 0,0 km/h (0 Bft)
19.10.2012 20:15 11,5 C 17,2 C 11,3 C 11,3 C 11,0 C 0,0 C 82 % 86 % 0 % 1015,9 hPa 0,0 l/m 0,0 km/h (0 Bft) O-NO 67 0 min 0,0 UV-I 8,5 C 11,0 C 0,0 km/h (0 Bft)
19.10.2012 20:20 11,2 C 17,1 C 11,3 C 11,1 C 10,9 C 0,0 C 82 % 86 % 0 % 1016,0 hPa 0,0 l/m 0,3 km/h (0 Bft) SW 225 0 min 0,0 UV-I 8,2 C 10,9 C 2,3 km/h (1 Bft)
19.10.2012 20:25 11,1 C 17,1 C 11,4 C 11,0 C 10,7 C 0,0 C 83 % 87 % 0 % 1016,0 hPa 0,0 l/m 0,6 km/h (0 Bft) SO 135 0 min 0,0 UV-I 8,3 C 10,7 C 0,0 km/h (0 Bft)
19.10.2012 20:30 10,9 C 17,1 C 11,2 C 10,8 C 10,5 C 0,0 C 83 % 86 % 0 % 1016,0 hPa 0,0 l/m 0,5 km/h (0 Bft) O-SO 112 0 min 0,0 UV-I 8,1 C 10,5 C 0,0 km/h (0 Bft)
19.10.2012 20:35 10,6 C 17,1 C 11,0 C 10,5 C 10,3 C 0,0 C 83 % 87 % 0 % 1016,0 hPa 0,0 l/m 0,0 km/h (0 Bft) W 270 0 min 0,0 UV-I 7,8 C 10,3 C 0,0 km/h (0 Bft)
19.10.2012 20:40 10,5 C 17,1 C 11,1 C 10,4 C 10,2 C 0,0 C 83 % 87 % 0 % 1016,3 hPa 0,0 l/m 0,0 km/h (0 Bft) SW 225 0 min 0,0 UV-I 7,7 C 10,2 C 0,0 km/h (0 Bft)
19.10.2012 20:45 10,4 C 17,1 C 11,1 C 10,4 C 10,3 C 0,0 C 83 % 87 % 0 % 1016,3 hPa 0,0 l/m 0,0 km/h (0 Bft) S-SW 202 0 min 0,0 UV-I 7,6 C 10,3 C 0,0 km/h (0 Bft)
19.10.2012 20:50 10,3 C 17,1 C 10,9 C 10,3 C 10,3 C 0,0 C 84 % 87 % 0 % 1016,3 hPa 0,0 l/m 0,0 km/h (0 Bft) O-NO 67 0 min 0,0 UV-I 7,7 C 10,3 C 0,0 km/h (0 Bft)
19.10.2012 20:55 10,3 C 17,1 C 10,7 C 10,3 C 10,3 C 0,0 C 85 % 87 % 0 % 1016,3 hPa 0,0 l/m 0,0 km/h (0 Bft) O-NO 67 0 min 0,0 UV-I 7,9 C 10,3 C 0,0 km/h (0 Bft)
19.10.2012 21:00 10,1 C 17,1 C 10,5 C 10,2 C 10,2 C 0,1 C 85 % 87 % 0 % 1016,4 hPa 0,0 l/m 0,0 km/h (0 Bft) O-NO 67 0 min 0,0 UV-I 7,7 C 10,2 C 0,0 km/h (0 Bft)
19.10.2012 21:05 10,0 C 17,1 C 10,4 C 10,1 C 10,1 C 0,1 C 85 % 88 % 0 % 1016,4 hPa 0,0 l/m 0,0 km/h (0 Bft) NW 315 0 min 0,0 UV-I 7,6 C 10,1 C 0,0 km/h (0 Bft)
19.10.2012 21:10 10,0 C 17,1 C 10,5 C 10,1 C 10,1 C 0,1 C 85 % 89 % 0 % 1016,4 hPa 0,0 l/m 0,0 km/h (0 Bft) N-NO 22 0 min 0,0 UV-I 7,6 C 10,1 C 0,0 km/h (0 Bft)
19.10.2012 21:15 9,9 C 17,1 C 10,4 C 10,1 C 10,1 C 0,2 C 85 % 88 % 0 % 1016,4 hPa 0,0 l/m 0,0 km/h (0 Bft) NO 45 0 min 0,0 UV-I 7,5 C 10,1 C 0,0 km/h (0 Bft)
19.10.2012 21:20 9,7 C 17,1 C 10,3 C 10,1 C 10,1 C 0,4 C 85 % 88 % 0 % 1016,4 hPa 0,0 l/m 0,0 km/h (0 Bft) O 90 0 min 0,0 UV-I 7,3 C 10,1 C 0,0 km/h (0 Bft)
19.10.2012 21:25 9,6 C 17,1 C 10,3 C 9,9 C 9,9 C 0,3 C 86 % 88 % 0 % 1016,4 hPa 0,0 l/m 0,0 km/h (0 Bft) NW 315 0 min 0,0 UV-I 7,4 C 9,9 C 0,0 km/h (0 Bft)
19.10.2012 21:30 9,5 C 17,1 C 10,3 C 9,7 C 9,7 C 0,2 C 86 % 88 % 0 % 1016,4 hPa 0,0 l/m 0,0 km/h (0 Bft) W 270 0 min 0,0 UV-I 7,3 C 9,7 C 0,0 km/h (0 Bft)
19.10.2012 21:35 9,5 C 17,1 C 10,2 C 9,6 C 9,6 C 0,1 C 86 % 89 % 0 % 1016,4 hPa 0,0 l/m 0,0 km/h (0 Bft) W-SW 247 0 min 0,0 UV-I 7,3 C 9,6 C 0,0 km/h (0 Bft)
19.10.2012 21:40 9,3 C 17,1 C 10,0 C 9,5 C 9,5 C 0,2 C 86 % 88 % 0 % 1017,4 hPa 0,0 l/m 0,0 km/h (0 Bft) S 180 0 min 0,0 UV-I 7,1 C 9,5 C 0,0 km/h (0 Bft)
19.10.2012 21:45 9,2 C 17,1 C 9,8 C 9,3 C 9,3 C 0,1 C 86 % 88 % 0 % 1017,4 hPa 0,0 l/m 0,0 km/h (0 Bft) SO 135 0 min 0,0 UV-I 7,0 C 9,3 C 0,0 km/h (0 Bft)
19.10.2012 21:50 9,1 C 17,1 C 9,6 C 9,2 C 9,2 C 0,1 C 86 % 88 % 0 % 1017,4 hPa 0,0 l/m 0,0 km/h (0 Bft) O 90 0 min 0,0 UV-I 6,9 C 9,2 C 0,0 km/h (0 Bft)
19.10.2012 21:55 9,1 C 17,1 C 9,6 C 9,3 C 9,3 C 0,2 C 86 % 89 % 0 % 1017,4 hPa 0,0 l/m 0,0 km/h (0 Bft) O-SO 112 0 min 0,0 UV-I 6,9 C 9,3 C 0,0 km/h (0 Bft)
19.10.2012 22:00 8,9 C 17,1 C 9,6 C 9,3 C 9,3 C 0,4 C 87 % 89 % 0 % 1016,7 hPa 0,0 l/m 0,0 km/h (0 Bft) O-NO 67 0 min 0,0 UV-I 6,9 C 9,3 C 0,0 km/h (0 Bft)
19.10.2012 22:05 8,9 C 17,1 C 9,5 C 9,3 C 9,3 C 0,4 C 87 % 89 % 0 % 1016,7 hPa 0,0 l/m 0,0 km/h (0 Bft) O-SO 112 0 min 0,0 UV-I 6,9 C 9,3 C 0,0 km/h (0 Bft)
19.10.2012 22:10 8,8 C 17,1 C 9,5 C 9,1 C 9,1 C 0,3 C 87 % 89 % 0 % 1016,7 hPa 0,0 l/m 0,0 km/h (0 Bft) O-NO 67 0 min 0,0 UV-I 6,8 C 9,1 C 0,0 km/h (0 Bft)
19.10.2012 22:15 8,7 C 17,1 C 9,4 C 8,8 C 8,8 C 0,1 C 87 % 89 % 0 % 1016,7 hPa 0,0 l/m 0,0 km/h (0 Bft) W-SW 247 0 min 0,0 UV-I 6,7 C 8,8 C 0,0 km/h (0 Bft)
19.10.2012 22:20 8,5 C 17,0 C 9,4 C 8,6 C 8,6 C 0,1 C 87 % 89 % 0 % 1017,3 hPa 0,0 l/m 0,0 km/h (0 Bft) W-SW 247 0 min 0,0 UV-I 6,5 C 8,6 C 0,0 km/h (0 Bft)
19.10.2012 22:25 8,4 C 17,0 C 9,3 C 8,6 C 8,6 C 0,2 C 87 % 89 % 0 % 1017,3 hPa 0,0 l/m 0,0 km/h (0 Bft) O 90 0 min 0,0 UV-I 6,4 C 8,6 C 0,0 km/h (0 Bft)
19.10.2012 22:30 8,5 C 17,0 C 9,2 C 8,6 C 8,6 C 0,1 C 87 % 90 % 0 % 1017,3 hPa 0,0 l/m 0,0 km/h (0 Bft) O 90 0 min 0,0 UV-I 6,5 C 8,6 C 0,0 km/h (0 Bft)
19.10.2012 22:35 8,3 C 17,0 C 9,1 C 8,6 C 8,6 C 0,3 C 87 % 90 % 0 % 1017,3 hPa 0,0 l/m 0,0 km/h (0 Bft) O-NO 67 0 min 0,0 UV-I 6,3 C 8,6 C 0,0 km/h (0 Bft)
19.10.2012 22:40 8,3 C 17,0 C 9,0 C 8,5 C 8,5 C 0,2 C 87 % 89 % 0 % 1016,8 hPa 0,0 l/m 0,0 km/h (0 Bft) O-NO 67 0 min 0,0 UV-I 6,3 C 8,5 C 0,0 km/h (0 Bft)
19.10.2012 22:45 8,1 C 17,1 C 8,9 C 8,3 C 8,3 C 0,2 C 87 % 90 % 0 % 1016,8 hPa 0,0 l/m 0,0 km/h (0 Bft) S 180 0 min 0,0 UV-I 6,1 C 8,3 C 0,0 km/h (0 Bft)
19.10.2012 22:50 8,0 C 17,1 C 9,1 C 8,1 C 8,1 C 0,1 C 87 % 90 % 0 % 1016,8 hPa 0,0 l/m 0,0 km/h (0 Bft) W-SW 247 0 min 0,0 UV-I 6,0 C 8,1 C 0,0 km/h (0 Bft)
19.10.2012 22:55 7,9 C 17,1 C 9,0 C 8,0 C 8,0 C 0,1 C 87 % 90 % 0 % 1016,8 hPa 0,0 l/m 0,0 km/h (0 Bft) W-SW 247 0 min 0,0 UV-I 5,9 C 8,0 C 0,0 km/h (0 Bft)
19.10.2012 23:00 7,9 C 17,0 C 8,9 C 7,9 C 7,8 C 0,0 C 87 % 90 % 0 % 1016,6 hPa 0,0 l/m 0,0 km/h (0 Bft) W-SW 247 0 min 0,0 UV-I 5,9 C 7,8 C 0,0 km/h (0 Bft)
19.10.2012 23:05 7,6 C 17,1 C 8,8 C 7,6 C 7,6 C 0,0 C 87 % 90 % 0 % 1016,6 hPa 0,0 l/m 0,0 km/h (0 Bft) W-SW 247 0 min 0,0 UV-I 5,6 C 7,6 C 0,0 km/h (0 Bft)
19.10.2012 23:10 7,6 C 17,0 C 8,8 C 7,6 C 7,5 C 0,0 C 87 % 90 % 0 % 1016,6 hPa 0,0 l/m 0,0 km/h (0 Bft) S-SW 202 0 min 0,0 UV-I 5,6 C 7,5 C 0,0 km/h (0 Bft)
19.10.2012 23:15 7,5 C 17,0 C 8,7 C 7,6 C 7,6 C 0,1 C 87 % 89 % 0 % 1016,6 hPa 0,0 l/m 0,0 km/h (0 Bft) W-SW 247 0 min 0,0 UV-I 5,5 C 7,6 C 0,0 km/h (0 Bft)
19.10.2012 23:20 7,3 C 17,0 C 8,7 C 7,5 C 7,5 C 0,2 C 87 % 89 % 0 % 1016,8 hPa 0,0 l/m 0,0 km/h (0 Bft) SW 225 0 min 0,0 UV-I 5,3 C 7,5 C 0,0 km/h (0 Bft)
19.10.2012 23:25 7,2 C 17,0 C 8,6 C 7,4 C 7,4 C 0,2 C 87 % 89 % 0 % 1016,8 hPa 0,0 l/m 0,0 km/h (0 Bft) SW 225 0 min 0,0 UV-I 5,2 C 7,4 C 0,0 km/h (0 Bft)
19.10.2012 23:30 7,2 C 17,0 C 8,4 C 7,3 C 7,3 C 0,1 C 87 % 89 % 0 % 1016,8 hPa 0,0 l/m 0,0 km/h (0 Bft) NW 315 0 min 0,0 UV-I 5,2 C 7,3 C 0,0 km/h (0 Bft)
19.10.2012 23:35 7,1 C 17,0 C 8,4 C 7,2 C 7,2 C 0,1 C 87 % 90 % 0 % 1016,8 hPa 0,0 l/m 0,0 km/h (0 Bft) W-SW 247 0 min 0,0 UV-I 5,1 C 7,2 C 0,0 km/h (0 Bft)
19.10.2012 23:40 7,1 C 17,0 C 8,3 C 7,2 C 7,2 C 0,1 C 88 % 90 % 0 % 1016,5 hPa 0,0 l/m 0,0 km/h (0 Bft) W 270 0 min 0,0 UV-I 5,2 C 7,2 C 0,0 km/h (0 Bft)
19.10.2012 23:45 7,1 C 17,0 C 8,3 C 7,2 C 7,2 C 0,1 C 88 % 90 % 0 % 1016,5 hPa 0,0 l/m 0,0 km/h (0 Bft) W-SW 247 0 min 0,0 UV-I 5,2 C 7,2 C 0,0 km/h (0 Bft)
19.10.2012 23:50 6,9 C 16,9 C 8,4 C 7,2 C 7,2 C 0,3 C 88 % 90 % 0 % 1016,5 hPa 0,0 l/m 0,0 km/h (0 Bft) O 90 0 min 0,0 UV-I 5,1 C 7,2 C 0,0 km/h (0 Bft)
19.10.2012 23:55 6,9 C 17,0 C 8,1 C 7,2 C 7,2 C 0,3 C 88 % 90 % 0 % 1016,5 hPa 0,0 l/m 0,0 km/h (0 Bft) O-NO 67 0 min 0,0 UV-I 5,1 C 7,2 C 0,0 km/h (0 Bft)
_ Min-Zeit 08:05 11:25 07:10 07:15 07:15 00:20 15:15 15:25 00:00 14:40 - 00:00 - - - 00:00 08:05 07:15 00:00
Minimum _ 4,3 C 15,2 C 5,6 C 4,8 C 4,8 C 0,0 C 52 % 65 % 0 % 1014,2 hPa - 0,0 km/h (0 Bft) - - - 0,0 UV-I 2,8 C 4,8 C 0,0 km/h (0 Bft)
_ Max-Zeit 15:05 20:15 15:20 13:25 13:25 13:20 09:55 09:25 12:20 01:45 00:00 15:20 - - 12:46 12:15 14:20 13:25 15:20
Maximum _ 23,3 C 17,2 C 21,1 C 28,8 C 28,8 C 9,4 C 93 % 93 % 100 % 1018,2 hPa 0,0 l/m 6,3 km/h
O (2 Bft)
- - 11 min 1,1 UV-I 14,8 C 28,8 C 8,9 km/h
O (2 Bft)
Durchschnitt _ 11,3 C 16,3 C 11,2 C 12,9 C 12,8 C 1,7 C 80 % 85 % 31 % 1016,6 hPa #0,0 l/m 0,6 km/h (0 Bft) O-NO - #6:15 h 0,6 UV-I 7,7 C 12,8 C 0,8 km/h (0 Bft)
2012 www.wetterstation-wechselburg.de